Time;durP1;ratioP1;P1;durP2;ratioP2;P2;SDS_P1;SDS_P2;PMS_P1;PMS_P2;Temp;Humidity;BMP_temperature;BMP_pressure;BME280_temperature;BME280_humidity;BME280_pressure;Samples;Min_cycle;Max_cycle;Signal;HPM_P1;HPM_P2
2023/02/23 00:02:05;;;;;;;29.35;17.05;;;;;;;7.59;50.89;95083.22;4965480;28;20392;-66
2023/02/23 00:04:31;;;;;;;29.58;17.92;;;;;;;7.75;50.62;95077.84;4965502;28;20031;-67
2023/02/23 00:06:57;;;;;;;28.85;17.15;;;;;;;7.92;50.26;95083.09;4964672;28;20415;-66
2023/02/23 00:09:23;;;;;;;30.65;18.38;;;;;;;7.72;50.96;95078.19;4965528;28;20509;-66
2023/02/23 00:11:53;;;;;;;26.65;17.25;;;;;;;7.52;51.52;95077.81;4965430;28;20038;-66
2023/02/23 00:14:19;;;;;;;29.92;17.65;;;;;;;7.48;51.92;95077.31;4962252;28;20039;-66
2023/02/23 00:16:45;;;;;;;29.52;18.25;;;;;;;7.63;51.97;95080.06;4963601;28;20078;-66
2023/02/23 00:19:12;;;;;;;30.45;18.60;;;;;;;7.45;52.20;95077.63;4965797;28;20506;-66
2023/02/23 00:21:39;;;;;;;27.10;17.48;;;;;;;7.65;51.95;95079.91;4964368;28;20088;-66
2023/02/23 00:24:07;;;;;;;30.88;19.15;;;;;;;7.62;52.20;95074.94;4964391;28;20567;-66
2023/02/23 00:26:33;;;;;;;;;;;;;;;7.66;52.13;95069.09;4965352;28;20334;-67
2023/02/23 00:29:00;;;;;;;29.23;16.90;;;;;;;7.60;52.24;95079.56;4965093;28;19961;-66
2023/02/23 00:31:26;;;;;;;28.77;17.83;;;;;;;7.54;52.59;95084.56;4965802;28;20134;-66
2023/02/23 00:33:53;;;;;;;30.48;19.02;;;;;;;7.49;53.24;95070.19;4964554;28;20657;-67
2023/02/23 00:36:18;;;;;;;31.08;18.70;;;;;;;7.25;53.85;95077.22;4963749;28;20069;-66
2023/02/23 00:38:44;;;;;;;29.65;19.00;;;;;;;7.18;54.13;95076.25;4964962;28;20487;-66
2023/02/23 00:41:19;;;;;;;28.98;19.83;;;;;;;7.20;54.40;95068.94;4964683;28;20085;-67
2023/02/23 00:43:47;;;;;;;31.10;21.23;;;;;;;7.13;54.84;95074.94;4963449;28;20490;-66
2023/02/23 00:46:15;;;;;;;29.15;20.23;;;;;;;7.30;54.03;95068.75;4964953;28;20062;-67
2023/02/23 00:48:40;;;;;;;32.13;19.77;;;;;;;7.49;53.49;95059.59;4963588;28;20075;-67
2023/02/23 00:51:06;;;;;;;31.52;20.17;;;;;;;7.31;53.95;95065.94;4965120;28;20419;-66
2023/02/23 00:53:31;;;;;;;31.58;20.00;;;;;;;7.35;53.98;95071.75;4963437;28;20349;-67
2023/02/23 00:55:57;;;;;;;29.73;20.05;;;;;;;7.79;53.11;95065.94;4965042;28;20410;-66
2023/02/23 00:58:23;;;;;;;30.88;20.33;;;;;;;7.74;52.79;95059.47;4964760;28;20066;-67
2023/02/23 01:00:49;;;;;;;32.55;20.52;;;;;;;7.93;52.45;95066.19;4964885;28;20180;-66
2023/02/23 01:03:14;;;;;;;31.58;20.60;;;;;;;7.86;51.98;95062.59;4965039;28;20040;-66
2023/02/23 01:05:39;;;;;;;29.83;19.70;;;;;;;7.92;52.35;95061.88;4964915;28;20072;-66
2023/02/23 01:08:08;;;;;;;29.55;20.20;;;;;;;7.95;51.88;95058.06;4964689;28;20037;-66
2023/02/23 01:10:37;;;;;;;30.92;20.15;;;;;;;7.90;52.04;95058.59;4964488;28;20145;-66
2023/02/23 01:13:03;;;;;;;27.65;18.33;;;;;;;7.84;52.03;95064.59;4964135;28;20077;-66
2023/02/23 01:15:28;;;;;;;26.70;18.45;;;;;;;7.69;52.49;95065.31;4965139;28;20074;-66
2023/02/23 01:17:53;;;;;;;30.88;20.42;;;;;;;7.64;52.62;95062.34;4964176;28;20062;-66
2023/02/23 01:20:19;;;;;;;25.02;17.98;;;;;;;7.86;52.43;95067.91;4964129;28;20561;-66
2023/02/23 01:22:48;;;;;;;36.03;19.25;;;;;;;7.48;53.28;95072.00;4964380;28;20145;-67
2023/02/23 01:25:14;;;;;;;30.35;19.70;;;;;;;7.52;53.25;95062.72;4964728;28;20495;-67
2023/02/23 01:27:40;;;;;;;42.65;20.25;;;;;;;7.77;52.33;95059.16;4962931;28;20056;-66
2023/02/23 01:30:06;;;;;;;44.45;19.13;;;;;;;8.10;51.83;95063.44;4964735;28;20067;-66
2023/02/23 01:32:34;;;;;;;38.15;20.70;;;;;;;8.24;51.27;95064.50;4964267;28;20474;-66
2023/02/23 01:34:59;;;;;;;34.63;17.88;;;;;;;8.34;51.48;95065.09;4964500;28;20057;-66
2023/02/23 01:37:24;;;;;;;32.97;19.80;;;;;;;8.36;51.28;95063.09;4964508;28;20403;-66
2023/02/23 01:39:50;;;;;;;37.85;19.77;;;;;;;8.40;51.24;95060.91;4964883;28;20045;-66
2023/02/23 01:42:15;;;;;;;31.35;19.85;;;;;;;8.42;51.37;95058.91;4964207;28;20046;-66
2023/02/23 01:44:41;;;;;;;25.10;17.83;;;;;;;8.47;50.87;95059.19;4964216;28;20073;-66
2023/02/23 01:47:07;;;;;;;30.92;19.08;;;;;;;8.56;51.07;95058.13;4965238;28;20200;-66
2023/02/23 01:49:35;;;;;;;29.40;20.20;;;;;;;8.54;50.13;95054.81;4964371;28;20049;-66
2023/02/23 01:52:00;;;;;;;29.65;19.58;;;;;;;8.55;49.99;95055.66;4963470;28;20082;-66
2023/02/23 01:54:37;;;;;;;27.87;18.50;;;;;;;8.56;49.81;95054.63;4964019;28;20043;-67
2023/02/23 01:57:03;;;;;;;27.67;17.83;;;;;;;8.60;50.17;95047.97;4964338;28;20055;-66
2023/02/23 01:59:37;;;;;;;27.60;18.45;;;;;;;8.64;49.41;95053.75;4950443;28;20153;-67
2023/02/23 02:02:04;;;;;;;28.52;19.60;;;;;;;8.69;49.97;95046.91;4949073;28;20058;-64
2023/02/23 02:04:32;;;;;;;36.38;19.02;;;;;;;8.75;49.86;95040.06;4966978;28;20391;-65
2023/02/23 02:07:00;;;;;;;32.35;19.27;;;;;;;8.77;49.46;95042.53;4966935;28;20492;-64
2023/02/23 02:09:27;;;;;;;34.35;19.48;;;;;;;8.80;49.22;95040.31;4965897;28;20043;-65
2023/02/23 02:11:55;;;;;;;31.48;18.83;;;;;;;8.83;48.91;95041.78;4966770;28;20019;-64
2023/02/23 02:14:26;;;;;;;37.78;20.55;;;;;;;8.81;48.90;95035.84;4967077;28;20049;-64
2023/02/23 02:17:13;;;;;;;32.92;20.48;;;;;;;8.80;49.12;95040.31;4966376;28;20043;-65
2023/02/23 02:20:25;;;;;;;34.42;20.27;;;;;;;8.76;48.72;95040.84;4967722;28;20049;-65
2023/02/23 02:23:15;;;;;;;35.92;20.65;;;;;;;8.81;48.74;95038.50;4960757;28;20050;-65
2023/02/23 02:26:19;;;;;;;31.50;18.92;;;;;;;8.83;48.42;95031.16;4967402;28;20448;-65
2023/02/23 02:29:12;;;;;;;36.20;20.13;;;;;;;8.88;48.50;95033.28;4966673;28;20046;-65
2023/02/23 02:32:02;;;;;;;37.08;21.63;;;;;;;8.80;48.41;95032.34;4966662;28;20027;-65
2023/02/23 02:35:00;;;;;;;51.05;23.95;;;;;;;8.71;48.50;95036.09;4965897;28;20055;-65
2023/02/23 02:37:42;;;;;;;37.40;21.92;;;;;;;8.70;48.70;95031.78;4965912;28;20114;-65
2023/02/23 02:40:26;;;;;;;36.00;22.33;;;;;;;8.72;48.66;95029.78;4966531;28;20034;-65
2023/02/23 02:42:59;;;;;;;43.20;22.05;;;;;;;8.75;48.34;95029.44;4955959;28;20598;-65
2023/02/23 02:45:33;;;;;;;42.33;22.38;;;;;;;8.84;48.39;95032.00;4966126;28;20204;-65
2023/02/23 02:48:14;;;;;;;52.42;21.98;;;;;;;8.85;48.02;95021.22;4965674;28;20311;-65
2023/02/23 02:51:08;;;;;;;64.65;22.13;;;;;;;8.82;47.77;95022.41;4956851;28;20567;-65
2023/02/23 02:53:59;;;;;;;35.83;21.27;;;;;;;8.82;47.93;95024.22;4953610;28;20085;-65
2023/02/23 02:56:25;;;;;;;34.38;21.70;;;;;;;8.82;47.74;95027.72;4938164;28;20035;-65
2023/02/23 02:58:52;;;;;;;42.70;23.20;;;;;;;8.79;47.75;95025.41;4936567;29;20046;-65
2023/02/23 04:17:48;;;;;;;20.83;14.55;;;;;;;8.92;48.66;95024.78;4963650;28;20092;-65
2023/02/23 04:20:13;;;;;;;26.13;13.05;;;;;;;8.92;48.88;95023.94;4969425;28;20038;-65
2023/02/23 04:22:39;;;;;;;23.05;12.90;;;;;;;9.02;48.25;95026.38;4963191;28;20092;-65
2023/02/23 04:25:05;;;;;;;19.05;12.85;;;;;;;9.02;48.32;95029.84;4965045;28;20046;-65
2023/02/23 04:27:30;;;;;;;24.67;13.65;;;;;;;9.03;48.12;95031.50;4964609;28;20050;-65
2023/02/23 04:29:56;;;;;;;16.90;13.50;;;;;;;9.01;48.74;95030.84;4965065;28;20518;-65
2023/02/23 04:32:21;;;;;;;18.85;14.07;;;;;;;9.00;48.06;95034.50;4964927;28;20050;-65
2023/02/23 04:34:47;;;;;;;26.58;18.40;;;;;;;9.05;47.82;95034.78;4965217;28;20061;-65
2023/02/23 04:37:12;;;;;;;23.02;15.38;;;;;;;9.07;48.22;95027.47;4964797;28;20121;-65
2023/02/23 04:39:37;;;;;;;17.65;12.52;;;;;;;9.08;48.13;95034.41;4964401;28;20088;-65
2023/02/23 04:42:03;;;;;;;18.92;12.07;;;;;;;9.19;47.88;95032.31;4964830;28;20043;-65
2023/02/23 04:44:28;;;;;;;15.25;12.07;;;;;;;9.15;47.89;95031.84;4946169;28;20037;-65
2023/02/23 04:46:55;;;;;;;19.02;12.52;;;;;;;9.16;47.50;95035.34;4965030;28;20027;-65
2023/02/23 04:49:21;;;;;;;20.00;13.93;;;;;;;9.16;47.66;95033.53;4965052;28;20050;-65
2023/02/23 04:51:46;;;;;;;18.85;13.20;;;;;;;9.18;47.70;95030.69;4965712;28;20694;-65
2023/02/23 04:54:11;;;;;;;15.93;12.38;;;;;;;9.15;47.61;95031.84;4964684;28;20139;-65
2023/02/23 04:56:38;;;;;;;25.67;14.95;;;;;;;9.28;47.36;95028.56;4964908;28;20101;-65
2023/02/23 04:59:03;;;;;;;28.17;14.20;;;;;;;9.24;47.32;95032.59;4965189;28;20611;-65
2023/02/23 05:01:29;;;;;;;21.13;12.25;;;;;;;9.17;47.45;95037.81;4964368;28;20073;-65
2023/02/23 05:03:55;;;;;;;20.15;12.02;;;;;;;9.15;47.83;95036.34;4964316;28;20030;-65
2023/02/23 05:06:23;;;;;;;16.38;11.45;;;;;;;9.11;47.76;95035.88;4964400;28;20355;-65
2023/02/23 05:08:48;;;;;;;18.48;12.02;;;;;;;9.03;47.71;95036.81;4963481;28;20072;-65
2023/02/23 05:11:14;;;;;;;16.17;10.80;;;;;;;8.90;48.07;95037.41;4964467;28;20098;-65
2023/02/23 05:13:39;;;;;;;17.83;10.82;;;;;;;8.42;49.54;95041.16;4964676;28;20031;-65
2023/02/23 05:16:05;;;;;;;14.75;11.48;;;;;;;8.29;50.28;95044.41;4963448;28;20039;-65
2023/02/23 05:18:30;;;;;;;32.53;11.57;;;;;;;7.83;51.06;95039.91;4964531;28;20080;-66
2023/02/23 05:21:06;;;;;;;24.52;10.45;;;;;;;8.28;50.62;95042.75;4963210;28;20391;-65
2023/02/23 05:23:33;;;;;;;11.77;8.85;;;;;;;8.51;49.45;95039.28;4964974;28;20097;-65
2023/02/23 05:26:09;;;;;;;17.42;9.68;;;;;;;8.65;49.56;95042.13;4962720;28;20069;-65
2023/02/23 05:28:36;;;;;;;11.07;9.15;;;;;;;8.63;49.42;95039.66;4962587;28;20113;-66
2023/02/23 05:31:04;;;;;;;27.17;10.20;;;;;;;8.53;49.56;95045.22;4965342;28;20046;-65
2023/02/23 05:33:33;;;;;;;19.23;11.40;;;;;;;7.19;52.98;95049.63;4967009;28;20076;-65
2023/02/23 05:35:59;;;;;;;14.57;10.15;;;;;;;7.41;52.67;95040.09;4966874;28;20045;-65
2023/02/23 05:38:26;;;;;;;12.20;8.73;;;;;;;8.12;51.32;95042.88;4968277;28;20043;-66
2023/02/23 05:40:51;;;;;;;12.45;9.30;;;;;;;8.15;50.71;95045.16;4967537;28;20411;-65
2023/02/23 05:43:17;;;;;;;13.13;9.95;;;;;;;7.17;53.43;95051.59;4968737;28;20041;-65
2023/02/23 05:45:42;;;;;;;11.82;8.63;;;;;;;7.83;51.49;95044.38;4967702;28;20055;-66
2023/02/23 05:48:08;;;;;;;11.00;8.35;;;;;;;7.88;51.39;95040.22;4965772;28;20175;-65
2023/02/23 05:50:33;;;;;;;14.77;9.57;;;;;;;8.03;50.93;95037.63;4966779;28;20046;-65
2023/02/23 05:52:59;;;;;;;11.75;8.98;;;;;;;8.14;50.58;95041.72;4967011;28;20542;-65
2023/02/23 05:55:24;;;;;;;12.35;8.77;;;;;;;8.20;50.59;95048.13;4967999;28;20076;-65
2023/02/23 05:57:50;;;;;;;10.55;8.30;;;;;;;7.68;52.05;95054.88;4966694;28;20121;-65
2023/02/23 06:00:16;;;;;;;10.80;8.43;;;;;;;7.78;51.58;95051.03;4967862;28;20514;-66
2023/02/23 06:02:42;;;;;;;10.43;8.10;;;;;;;8.01;51.17;95047.59;4967935;28;20051;-65
2023/02/23 06:05:08;;;;;;;11.88;8.40;;;;;;;7.32;52.60;95046.44;4967171;28;20247;-65
2023/02/23 06:07:34;;;;;;;11.90;8.40;;;;;;;7.15;53.32;95062.34;4968122;28;20517;-65
2023/02/23 06:09:59;;;;;;;11.20;8.25;;;;;;;7.46;52.89;95047.53;4967591;28;20050;-65
2023/02/23 06:12:25;;;;;;;9.27;7.20;;;;;;;7.85;51.91;95051.16;4967275;28;20034;-65
2023/02/23 06:14:50;;;;;;;14.80;9.35;;;;;;;8.16;50.96;95050.28;4967465;28;20174;-66
2023/02/23 06:17:16;;;;;;;12.52;8.48;;;;;;;8.36;50.77;95054.31;4966771;28;20077;-65
2023/02/23 06:19:41;;;;;;;9.75;7.03;;;;;;;8.47;50.32;95056.53;4965520;28;20061;-65
2023/02/23 06:22:07;;;;;;;10.27;8.13;;;;;;;8.42;50.21;95050.94;4962313;28;20118;-65
2023/02/23 06:24:33;;;;;;;10.60;7.40;;;;;;;8.30;50.35;95059.31;4950752;28;20050;-65
2023/02/23 06:26:58;;;;;;;10.88;6.97;;;;;;;8.08;50.77;95066.25;4965505;28;20041;-65
2023/02/23 06:29:24;;;;;;;10.23;7.43;;;;;;;8.43;50.00;95066.69;4967220;28;20039;-65
2023/02/23 06:31:50;;;;;;;10.13;7.43;;;;;;;8.63;49.37;95071.50;4965936;28;20039;-65
2023/02/23 06:34:15;;;;;;;9.45;6.93;;;;;;;8.69;49.41;95060.16;4966851;28;20031;-65
2023/02/23 06:36:41;;;;;;;9.52;7.30;;;;;;;8.78;49.35;95068.06;4967141;28;20070;-65
2023/02/23 06:39:06;;;;;;;8.57;6.55;;;;;;;8.78;48.87;95066.22;4965736;28;20054;-65
2023/02/23 06:41:32;;;;;;;9.65;7.80;;;;;;;8.46;49.46;95065.50;4966687;28;20046;-66
2023/02/23 06:43:57;;;;;;;10.73;7.50;;;;;;;8.61;49.50;95068.22;4966897;28;20211;-65
2023/02/23 06:46:23;;;;;;;9.70;7.10;;;;;;;8.69;49.28;95068.13;4965296;28;20046;-66
2023/02/23 06:48:48;;;;;;;18.35;9.43;;;;;;;8.82;49.08;95066.69;4966960;28;20035;-65
2023/02/23 06:51:14;;;;;;;11.57;8.00;;;;;;;8.78;48.92;95066.22;4966046;28;20041;-65
2023/02/23 06:53:39;;;;;;;10.43;7.53;;;;;;;8.79;49.47;95073.19;4966470;28;20030;-66
2023/02/23 06:56:05;;;;;;;31.25;16.52;;;;;;;8.56;49.34;95079.34;4966551;28;20026;-66
2023/02/23 06:58:30;;;;;;;14.73;9.48;;;;;;;8.69;49.58;95078.75;4966627;28;20043;-65
2023/02/23 07:00:57;;;;;;;29.50;11.40;;;;;;;8.59;50.09;95079.97;4966406;28;20042;-65
2023/02/23 07:03:22;;;;;;;19.77;12.88;;;;;;;8.73;49.90;95084.50;4965141;28;20391;-65
2023/02/23 07:05:49;;;;;;;23.23;15.85;;;;;;;8.64;49.57;95082.94;4966083;28;20035;-66
2023/02/23 07:08:15;;;;;;;14.63;11.35;;;;;;;8.79;49.28;95085.63;4966710;28;20099;-66
2023/02/23 07:10:40;;;;;;;18.48;9.07;;;;;;;8.28;50.36;95082.56;4965420;28;20858;-66
2023/02/23 07:13:06;;;;;;;13.27;9.18;;;;;;;7.84;51.86;95089.28;4964650;28;20030;-66
2023/02/23 07:15:31;;;;;;;9.20;6.30;;;;;;;8.36;50.27;95091.44;4966000;28;20035;-66
2023/02/23 07:17:56;;;;;;;13.32;7.10;;;;;;;8.13;51.25;95094.91;4965475;28;20065;-66
2023/02/23 07:20:22;;;;;;;8.88;7.20;;;;;;;8.44;50.41;95096.69;4964791;28;20043;-66
2023/02/23 07:22:47;;;;;;;36.95;7.88;;;;;;;8.20;50.70;95100.34;4966840;28;20022;-66
2023/02/23 07:25:13;;;;;;;11.77;6.90;;;;;;;8.42;50.28;95104.00;4966457;28;20122;-66
2023/02/23 07:27:40;;;;;;;18.85;6.90;;;;;;;8.35;50.21;95109.19;4966216;28;20484;-66
2023/02/23 07:30:07;;;;;;;33.85;7.78;;;;;;;7.55;53.03;95111.88;4966106;28;20050;-66
2023/02/23 07:32:32;;;;;;;9.93;7.50;;;;;;;7.81;52.16;95104.69;4961161;28;20069;-66
2023/02/23 07:34:58;;;;;;;8.18;6.63;;;;;;;8.25;51.07;95114.72;4966603;28;20042;-66
2023/02/23 07:37:23;;;;;;;18.88;7.63;;;;;;;8.21;51.05;95118.72;4962803;28;20069;-66
2023/02/23 07:39:48;;;;;;;8.73;6.93;;;;;;;8.42;50.20;95114.59;4963749;28;20026;-66
2023/02/23 07:42:14;;;;;;;10.80;6.93;;;;;;;8.53;50.19;95108.88;4965914;28;20484;-66
2023/02/23 07:44:39;;;;;;;18.02;7.55;;;;;;;8.33;50.60;95113.81;4965690;28;20077;-66
2023/02/23 07:47:05;;;;;;;7.93;6.72;;;;;;;8.42;50.72;95117.25;4964671;28;20319;-66
2023/02/23 07:49:31;;;;;;;11.35;7.07;;;;;;;8.30;51.06;95115.00;4964355;28;20174;-66
2023/02/23 07:51:57;;;;;;;8.07;6.40;;;;;;;8.57;50.26;95120.78;4948531;28;20045;-66
2023/02/23 07:54:24;;;;;;;10.50;6.38;;;;;;;8.71;50.10;95122.84;4964599;28;20339;-66
2023/02/23 07:56:50;;;;;;;18.10;6.32;;;;;;;8.46;50.23;95123.03;4964271;28;20051;-66
2023/02/23 07:59:16;;;;;;;8.70;6.00;;;;;;;8.29;51.18;95128.44;4964411;28;20410;-66
2023/02/23 08:01:41;;;;;;;11.73;6.65;;;;;;;8.44;50.48;95131.19;4964911;28;20049;-66
2023/02/23 08:04:07;;;;;;;8.95;6.15;;;;;;;8.66;49.99;95126.03;4965886;28;20031;-66
2023/02/23 08:06:32;;;;;;;9.48;6.10;;;;;;;8.41;50.43;95126.22;4965229;28;20046;-66
2023/02/23 08:08:59;;;;;;;8.18;6.10;;;;;;;8.37;50.62;95124.94;4964568;28;20069;-66
2023/02/23 08:11:27;;;;;;;8.32;6.20;;;;;;;7.83;52.09;95134.50;4964411;28;20427;-66
2023/02/23 08:13:55;;;;;;;8.75;5.68;;;;;;;7.35;52.81;95135.28;4965262;28;20050;-66
2023/02/23 08:16:20;;;;;;;6.43;4.60;;;;;;;7.11;53.66;95140.44;4964522;28;20041;-66
2023/02/23 08:18:46;;;;;;;7.90;5.50;;;;;;;7.39;53.38;95137.41;4957559;28;20057;-66
2023/02/23 08:21:11;;;;;;;8.88;5.43;;;;;;;7.39;53.24;95139.25;4964402;28;20042;-66
2023/02/23 08:23:37;;;;;;;8.95;5.00;;;;;;;6.75;54.48;95144.31;4965558;28;20511;-66
2023/02/23 08:26:02;;;;;;;10.35;6.13;;;;;;;7.13;54.32;95142.94;4964762;28;20072;-66
2023/02/23 08:28:28;;;;;;;10.18;5.60;;;;;;;6.33;56.09;95139.94;4961097;28;20403;-66
2023/02/23 08:30:53;;;;;;;10.88;6.88;;;;;;;6.10;57.36;95144.03;4963809;28;20044;-66
2023/02/23 08:33:19;;;;;;;12.27;5.90;;;;;;;5.81;58.17;95152.34;4964677;28;20088;-66
2023/02/23 08:35:45;;;;;;;14.40;6.45;;;;;;;5.61;58.80;95149.94;4965079;28;20114;-66
2023/02/23 08:38:10;;;;;;;13.13;7.40;;;;;;;5.95;58.35;95148.28;4965381;28;20084;-66
2023/02/23 08:40:35;;;;;;;11.98;7.35;;;;;;;5.59;59.32;95150.13;4963591;28;20072;-66
2023/02/23 08:43:01;;;;;;;16.08;9.70;;;;;;;5.59;59.23;95154.56;4965300;28;20048;-66
2023/02/23 08:45:28;;;;;;;16.73;8.88;;;;;;;5.29;60.43;95152.28;4964588;28;20054;-66
2023/02/23 08:47:54;;;;;;;14.73;9.68;;;;;;;5.24;60.38;95148.44;4965157;28;20091;-66
2023/02/23 08:50:19;;;;;;;14.60;8.63;;;;;;;5.44;59.27;95154.34;4962239;28;20551;-65
2023/02/23 08:52:45;;;;;;;10.40;6.25;;;;;;;4.92;60.50;95155.94;4964015;28;20173;-66
2023/02/23 08:55:10;;;;;;;14.45;9.30;;;;;;;4.89;61.19;95157.09;4963482;28;20089;-65
2023/02/23 08:57:36;;;;;;;13.23;9.48;;;;;;;5.05;61.48;95151.09;4964535;28;20082;-66
2023/02/23 09:00:02;;;;;;;14.75;9.23;;;;;;;5.22;60.34;95149.44;4963320;28;20043;-66
2023/02/23 09:02:27;;;;;;;13.85;7.53;;;;;;;4.75;62.35;95161.09;4964503;28;20613;-66
2023/02/23 09:04:53;;;;;;;15.85;9.93;;;;;;;5.48;60.28;95163.59;4963908;28;20069;-65
2023/02/23 09:07:21;;;;;;;15.73;10.13;;;;;;;5.63;59.43;95161.19;4964773;28;20058;-66
2023/02/23 09:09:52;;;;;;;13.20;9.43;;;;;;;5.74;58.64;95160.91;4964118;28;20110;-65
2023/02/23 09:12:18;;;;;;;12.88;9.50;;;;;;;5.42;59.77;95167.69;4963319;28;20127;-65
2023/02/23 09:14:43;;;;;;;18.10;11.10;;;;;;;5.68;59.62;95171.28;4963775;28;20500;-65
2023/02/23 09:17:08;;;;;;;17.25;10.50;;;;;;;5.53;59.97;95179.78;4963594;28;20127;-65
2023/02/23 09:19:34;;;;;;;164.38;12.15;;;;;;;5.83;59.11;95180.28;4964324;28;20528;-65
2023/02/23 09:21:59;;;;;;;10.48;7.97;;;;;;;4.84;61.54;95183.09;4963473;28;20133;-65
2023/02/23 09:24:25;;;;;;;17.73;8.50;;;;;;;4.36;63.61;95193.91;4963201;28;20046;-65
2023/02/23 09:26:52;;;;;;;13.75;10.32;;;;;;;4.67;63.01;95190.03;4963738;28;20046;-66
2023/02/23 09:29:17;;;;;;;12.77;10.10;;;;;;;4.88;62.05;95186.25;4962471;28;20079;-65
2023/02/23 09:31:43;;;;;;;10.60;8.52;;;;;;;5.11;61.67;95186.63;4963625;28;20128;-66
2023/02/23 09:34:09;;;;;;;13.88;10.75;;;;;;;4.97;61.79;95186.16;4961159;28;20086;-65
2023/02/23 09:36:34;;;;;;;12.23;9.98;;;;;;;4.78;62.07;95183.69;4959831;28;20087;-65
2023/02/23 09:39:00;;;;;;;12.75;9.70;;;;;;;5.01;62.06;95188.50;4962844;28;20117;-65
2023/02/23 09:41:29;;;;;;;11.77;9.30;;;;;;;4.85;61.88;95184.75;4963461;28;20072;-65
2023/02/23 09:44:12;;;;;;;11.73;9.27;;;;;;;4.81;62.36;95189.53;4961923;28;20153;-65
2023/02/23 09:46:56;;;;;;;13.05;9.02;;;;;;;4.99;61.62;95193.13;4963312;28;20482;-64
2023/02/23 09:49:24;;;;;;;10.40;7.50;;;;;;;4.29;63.88;95193.63;4962560;28;20083;-64
2023/02/23 09:51:56;;;;;;;12.68;8.50;;;;;;;4.37;63.80;95195.53;4961370;28;20048;-65
2023/02/23 09:54:23;;;;;;;13.45;9.73;;;;;;;4.29;63.66;95191.00;4952850;28;20601;-65
2023/02/23 09:56:49;;;;;;;13.75;9.02;;;;;;;4.35;63.71;95197.47;4945394;28;20428;-65
2023/02/23 09:59:16;;;;;;;13.80;10.20;;;;;;;4.44;63.55;95193.97;4962829;28;20054;-65
2023/02/23 10:01:58;;;;;;;13.40;9.35;;;;;;;4.60;63.28;95197.75;4963007;28;20466;-65
2023/02/23 10:04:40;;;;;;;18.25;11.70;;;;;;;4.45;62.94;95203.53;4962799;28;20052;-65
2023/02/23 10:07:24;;;;;;;26.48;11.18;;;;;;;4.68;63.14;95205.72;4959697;28;20573;-65
2023/02/23 10:10:35;;;;;;;11.60;8.80;;;;;;;4.28;63.84;95207.81;4960643;28;20063;-65
2023/02/23 10:13:06;;;;;;;13.30;9.82;;;;;;;4.63;63.24;95215.06;4952796;28;20905;-65
2023/02/23 10:15:41;;;;;;;14.80;9.88;;;;;;;5.20;61.62;95206.81;4951061;28;20061;-65
2023/02/23 10:18:19;;;;;;;12.68;9.45;;;;;;;5.63;59.37;95206.09;4963478;28;20544;-65
2023/02/23 10:20:56;;;;;;;14.55;10.27;;;;;;;5.36;59.93;95207.91;4966940;28;20079;-65
2023/02/23 10:23:40;;;;;;;16.75;11.95;;;;;;;5.56;58.98;95205.06;4964606;28;20181;-65
2023/02/23 10:26:07;;;;;;;13.13;9.43;;;;;;;5.06;60.58;95210.84;4959948;28;20077;-64
2023/02/23 10:28:34;;;;;;;15.45;11.20;;;;;;;5.09;60.87;95214.97;4958533;28;20432;-65
2023/02/23 10:31:00;;;;;;;29.63;11.27;;;;;;;5.26;60.75;95205.38;4960402;28;20105;-64
2023/02/23 10:33:35;;;;;;;27.05;12.02;;;;;;;5.32;60.24;95209.22;4963738;28;20432;-65
2023/02/23 10:36:13;;;;;;;17.20;11.32;;;;;;;5.31;61.07;95208.38;4962142;28;20045;-65
2023/02/23 10:38:38;;;;;;;20.42;11.02;;;;;;;4.93;62.03;95205.91;4954673;28;20074;-65
2023/02/23 10:41:04;;;;;;;16.25;11.52;;;;;;;5.01;62.15;95210.44;4945824;28;20064;-65
2023/02/23 10:43:30;;;;;;;19.85;13.63;;;;;;;5.42;60.21;95220.50;4944723;28;20555;-65
2023/02/23 10:45:55;;;;;;;16.73;12.07;;;;;;;5.42;59.89;95217.88;4947009;28;20076;-65
2023/02/23 10:48:42;;;;;;;18.38;13.00;;;;;;;5.07;61.32;95217.78;4965852;28;20107;-65
2023/02/23 10:51:13;;;;;;;15.88;11.30;;;;;;;5.02;61.46;95217.38;4964859;28;20077;-65
2023/02/23 10:53:39;;;;;;;19.95;13.75;;;;;;;5.34;59.69;95223.09;4948935;28;20414;-65
2023/02/23 10:56:06;;;;;;;20.42;13.70;;;;;;;5.48;59.32;95213.78;4962709;28;20120;-65
2023/02/23 10:58:38;;;;;;;19.25;13.63;;;;;;;5.12;60.12;95221.75;4963883;28;20068;-65
2023/02/23 11:01:04;;;;;;;16.27;10.65;;;;;;;4.62;62.26;95230.03;4965341;28;20071;-64
2023/02/23 11:03:43;;;;;;;32.88;14.07;;;;;;;4.51;63.19;95225.00;4961304;28;20048;-64
2023/02/23 11:06:42;;;;;;;21.58;11.75;;;;;;;4.11;64.99;95225.22;4961838;28;20080;-65
2023/02/23 11:09:25;;;;;;;18.85;12.75;;;;;;;4.13;64.96;95231.19;4960944;28;20108;-65
2023/02/23 11:12:14;;;;;;;26.70;14.45;;;;;;;4.42;64.45;95224.09;4966485;28;20227;-65
2023/02/23 11:14:39;;;;;;;;;;;;;;;3.87;65.54;95228.38;4963542;28;20551;-65
2023/02/23 11:17:05;;;;;;;20.83;11.93;;;;;;;3.86;66.22;95232.84;4961624;28;19997;-65
2023/02/23 11:19:35;;;;;;;25.40;11.38;;;;;;;4.12;65.05;95232.16;4960385;28;20435;-65
2023/02/23 11:22:01;;;;;;;17.15;12.40;;;;;;;4.69;63.44;95233.75;4963161;28;20461;-65
2023/02/23 11:24:31;;;;;;;21.75;13.40;;;;;;;4.82;63.10;95224.63;4962756;28;20038;-65
2023/02/23 11:26:59;;;;;;;17.77;12.45;;;;;;;4.54;63.25;95227.34;4949805;28;20412;-64
2023/02/23 11:29:34;;;;;;;23.27;12.90;;;;;;;4.48;63.29;95228.75;4954513;28;20078;-65
2023/02/23 11:32:08;;;;;;;18.50;13.05;;;;;;;4.20;65.29;95226.16;4961703;28;20616;-65
2023/02/23 11:34:39;;;;;;;18.77;12.88;;;;;;;4.68;63.13;95224.19;4961116;28;20413;-65
2023/02/23 11:37:25;;;;;;;21.73;15.15;;;;;;;4.96;61.50;95212.69;4961099;28;20205;-65
2023/02/23 11:39:56;;;;;;;26.35;16.05;;;;;;;4.88;62.07;95210.84;4959985;28;20075;-64
2023/02/23 11:42:26;;;;;;;41.72;15.80;;;;;;;4.29;64.23;95209.44;4964243;28;20075;-65
2023/02/23 11:45:01;;;;;;;208.90;20.35;;;;;;;5.04;61.40;95209.31;4965633;28;20072;-64
2023/02/23 11:47:27;;;;;;;26.67;13.48;;;;;;;4.78;62.47;95202.16;4948954;28;20590;-64
2023/02/23 11:49:52;;;;;;;76.80;18.23;;;;;;;4.99;62.09;95206.31;4963416;28;20145;-65
2023/02/23 11:52:20;;;;;;;53.38;17.35;;;;;;;4.89;62.38;95209.00;4963850;28;20053;-65
2023/02/23 11:54:59;;;;;;;95.40;22.00;;;;;;;4.80;62.10;95214.22;4964309;28;20540;-65
2023/02/23 11:57:29;;;;;;;24.83;12.93;;;;;;;4.16;64.57;95217.72;4963364;28;20075;-64
2023/02/23 11:59:55;;;;;;;59.28;28.02;;;;;;;4.31;63.20;95215.41;4963369;28;20073;-64
2023/02/23 12:02:25;;;;;;;37.25;22.45;;;;;;;4.33;63.24;95215.28;4963856;28;20559;-65
2023/02/23 12:05:00;;;;;;;32.42;18.40;;;;;;;4.72;62.01;95208.88;4963363;28;20664;-65
2023/02/23 12:07:33;;;;;;;43.47;25.58;;;;;;;5.28;60.56;95211.34;4963126;28;20049;-65
2023/02/23 12:10:14;;;;;;;32.45;19.42;;;;;;;4.76;62.05;95209.41;4962647;28;20075;-65
2023/02/23 12:12:56;;;;;;;34.67;19.70;;;;;;;4.83;61.46;95215.75;4949389;28;20078;-65
2023/02/23 12:15:43;;;;;;;26.50;14.85;;;;;;;4.03;63.77;95211.97;4963818;28;20059;-64
2023/02/23 12:18:20;;;;;;;29.02;16.13;;;;;;;4.15;62.83;95218.69;4964178;28;20095;-64
2023/02/23 12:20:47;;;;;;;38.15;22.00;;;;;;;4.08;64.01;95214.97;4961330;28;20085;-70
2023/02/23 12:23:17;;;;;;;38.60;23.50;;;;;;;4.35;63.04;95215.13;4964231;28;20049;-70
2023/02/23 12:25:49;;;;;;;35.05;22.38;;;;;;;4.65;61.77;95213.09;4947430;28;20453;-71
2023/02/23 12:28:19;;;;;;;41.83;25.23;;;;;;;4.74;61.31;95204.28;4963783;28;20071;-70
2023/02/23 12:30:55;;;;;;;35.08;22.42;;;;;;;4.81;60.41;95202.72;4946391;28;20092;-70
2023/02/23 12:33:37;;;;;;;36.15;21.85;;;;;;;4.75;61.48;95211.22;4932160;28;20441;-71
2023/02/23 12:36:16;;;;;;;28.60;16.50;;;;;;;4.11;62.51;95213.88;4964055;28;20847;-70
2023/02/23 12:38:49;;;;;;;40.40;25.55;;;;;;;4.64;61.27;95206.16;4932077;28;20072;-70
2023/02/23 12:41:19;;;;;;;41.08;23.52;;;;;;;4.31;61.81;95210.16;4961765;28;20088;-70
2023/02/23 12:43:50;;;;;;;40.60;26.30;;;;;;;4.73;60.82;95217.63;4948321;28;20048;-71
2023/02/23 12:46:24;;;;;;;35.20;22.17;;;;;;;4.96;59.60;95196.88;4963187;28;20082;-72
2023/02/23 12:49:05;;;;;;;36.47;22.38;;;;;;;5.16;58.48;95199.34;4960873;28;20066;-71
2023/02/23 12:51:33;;;;;;;31.30;20.48;;;;;;;4.80;59.58;95194.94;4965205;28;20043;-71
2023/02/23 12:53:59;;;;;;;36.83;24.27;;;;;;;5.26;58.51;95197.44;4947567;28;20200;-70
2023/02/23 12:56:46;;;;;;;31.83;20.63;;;;;;;5.57;57.56;95190.84;4947214;28;20056;-70